createdAt,value
2017-08-29T00:01:55.094Z,30.00
2017-08-29T00:04:22.592Z,29.25
2017-08-29T00:06:50.262Z,30.17
2017-08-29T00:09:17.924Z,28.30
2017-08-29T00:11:45.372Z,28.77
2017-08-29T00:14:12.829Z,29.80
2017-08-29T00:16:40.287Z,29.05
2017-08-29T00:19:07.752Z,27.48
2017-08-29T00:21:35.212Z,27.37
2017-08-29T00:24:02.665Z,26.70
2017-08-29T00:26:30.123Z,26.30
2017-08-29T00:28:57.571Z,25.52
2017-08-29T00:31:25.028Z,26.87
2017-08-29T00:33:52.484Z,25.98
2017-08-29T00:36:19.944Z,26.95
2017-08-29T00:38:47.399Z,27.35
2017-08-29T00:41:14.848Z,26.05
2017-08-29T00:43:43.116Z,27.33
2017-08-29T00:46:10.575Z,26.42
2017-08-29T00:48:38.032Z,27.13
2017-08-29T00:51:05.491Z,26.35
2017-08-29T00:53:32.951Z,27.58
2017-08-29T00:56:00.419Z,27.00
2017-08-29T00:58:27.868Z,25.85
2017-08-29T01:00:55.348Z,26.67
2017-08-29T01:03:22.795Z,26.23
2017-08-29T01:05:50.242Z,24.98
2017-08-29T01:08:17.704Z,24.77
2017-08-29T01:10:45.155Z,25.65
2017-08-29T01:13:12.611Z,25.45
2017-08-29T01:15:40.065Z,24.55
2017-08-29T01:18:07.520Z,24.65
2017-08-29T01:20:34.975Z,24.73
2017-08-29T01:23:02.427Z,24.85
2017-08-29T01:25:29.880Z,26.75
2017-08-29T01:27:57.335Z,26.42
2017-08-29T01:30:24.787Z,25.08
2017-08-29T01:32:52.252Z,24.45
2017-08-29T01:35:19.702Z,25.30
2017-08-29T01:37:47.159Z,22.95
2017-08-29T01:40:14.611Z,22.60
2017-08-29T01:42:42.068Z,23.52
2017-08-29T01:45:09.516Z,23.50
2017-08-29T01:47:36.970Z,24.27
2017-08-29T01:50:04.423Z,22.65
2017-08-29T01:52:31.882Z,23.35
2017-08-29T01:54:59.344Z,23.27
2017-08-29T01:57:26.798Z,24.70
2017-08-29T01:59:54.258Z,24.50
2017-08-29T02:02:21.708Z,23.00
2017-08-29T02:04:49.168Z,23.73
2017-08-29T02:07:16.611Z,22.62
2017-08-29T02:09:44.068Z,22.27
2017-08-29T02:12:11.528Z,23.20
2017-08-29T02:14:38.994Z,23.40
2017-08-29T02:17:06.440Z,22.65
2017-08-29T02:19:33.895Z,23.80
2017-08-29T02:22:01.349Z,21.98
2017-08-29T02:24:28.808Z,24.37
2017-08-29T02:26:56.260Z,22.92
2017-08-29T02:29:23.711Z,21.73
2017-08-29T02:31:51.167Z,24.55
2017-08-29T02:34:18.625Z,23.23
2017-08-29T02:36:46.079Z,22.35
2017-08-29T02:39:13.540Z,22.40
2017-08-29T02:41:40.989Z,23.10
2017-08-29T02:44:08.439Z,23.20
2017-08-29T02:46:35.882Z,24.42
2017-08-29T02:49:03.348Z,23.75
2017-08-29T02:51:30.794Z,24.10
2017-08-29T02:53:58.251Z,24.77
2017-08-29T02:56:25.703Z,23.12
2017-08-29T02:58:53.163Z,22.73
2017-08-29T03:01:20.612Z,22.35
2017-08-29T03:03:48.068Z,25.15
2017-08-29T03:06:15.523Z,24.87
2017-08-29T03:08:42.979Z,25.88
2017-08-29T03:11:10.440Z,23.80
2017-08-29T03:13:37.899Z,25.23
2017-08-29T03:16:05.359Z,23.75
2017-08-29T03:18:32.803Z,24.55
2017-08-29T03:21:00.258Z,24.27
2017-08-29T03:23:27.709Z,23.10
2017-08-29T03:25:55.163Z,23.77
2017-08-29T03:28:22.611Z,23.80
2017-08-29T03:30:50.068Z,24.70
2017-08-29T03:33:17.514Z,23.70
2017-08-29T03:35:44.975Z,24.33
2017-08-29T03:38:12.426Z,23.10
2017-08-29T03:40:39.879Z,22.98
2017-08-29T03:43:07.331Z,24.37
2017-08-29T03:45:34.788Z,23.70
2017-08-29T03:48:02.240Z,25.15
2017-08-29T03:50:29.695Z,24.42
2017-08-29T03:52:57.139Z,25.40
2017-08-29T03:55:24.604Z,24.05
2017-08-29T03:57:52.056Z,25.03
2017-08-29T04:00:19.511Z,24.87
2017-08-29T04:02:46.955Z,24.80
2017-08-29T04:05:14.423Z,24.05
2017-08-29T04:07:41.871Z,23.67
2017-08-29T04:10:09.325Z,22.52
2017-08-29T04:12:36.780Z,23.45
2017-08-29T04:15:04.223Z,21.75
2017-08-29T04:17:31.688Z,24.20
2017-08-29T04:19:59.129Z,21.83
2017-08-29T04:22:26.593Z,21.55
2017-08-29T04:24:54.037Z,22.70
2017-08-29T04:27:21.515Z,22.58
2017-08-29T04:29:48.955Z,21.98
2017-08-29T04:32:16.412Z,20.17
2017-08-29T04:34:43.871Z,21.10
2017-08-29T04:37:11.328Z,20.48
2017-08-29T04:39:38.780Z,20.35
2017-08-29T04:42:06.229Z,20.90
2017-08-29T04:44:33.683Z,20.52
2017-08-29T04:47:01.137Z,19.45
2017-08-29T04:49:28.597Z,19.75
2017-08-29T04:51:56.047Z,20.55
2017-08-29T04:54:23.517Z,20.40
2017-08-29T04:56:50.956Z,19.92
2017-08-29T04:59:18.413Z,20.55
2017-08-29T05:01:45.859Z,19.55
2017-08-29T05:04:13.325Z,19.67
2017-08-29T05:06:40.759Z,20.35
2017-08-29T05:09:08.216Z,19.77
2017-08-29T05:11:35.664Z,20.08
2017-08-29T05:14:03.120Z,20.45
2017-08-29T05:16:30.569Z,19.35
2017-08-29T05:18:58.536Z,18.77
2017-08-29T05:21:25.979Z,18.00
2017-08-29T05:23:53.440Z,21.37
2017-08-29T05:26:21.666Z,18.15
2017-08-29T05:28:49.499Z,18.33
2017-08-29T05:31:16.938Z,19.33
2017-08-29T05:33:44.388Z,19.15
2017-08-29T05:36:11.836Z,17.98
2017-08-29T05:38:39.295Z,17.52
2017-08-29T05:41:06.750Z,18.90
2017-08-29T05:43:34.204Z,18.83
2017-08-29T05:46:01.655Z,16.45
2017-08-29T05:48:29.115Z,17.75
2017-08-29T05:50:56.558Z,19.73
2017-08-29T05:53:24.010Z,18.67
2017-08-29T05:55:51.472Z,18.67
2017-08-29T05:58:18.916Z,18.12
2017-08-29T06:00:46.381Z,17.23
2017-08-29T06:03:13.835Z,17.80
2017-08-29T06:05:41.292Z,16.48
2017-08-29T06:08:08.745Z,17.33
2017-08-29T06:10:36.210Z,17.62
2017-08-29T06:13:03.665Z,17.62
2017-08-29T06:15:31.131Z,17.37
2017-08-29T06:17:58.583Z,16.87
2017-08-29T06:20:26.032Z,16.97
2017-08-29T06:22:53.482Z,15.53
2017-08-29T06:25:20.926Z,15.00
2017-08-29T06:27:48.383Z,14.70
2017-08-29T06:30:15.831Z,12.47
2017-08-29T06:32:43.282Z,12.37
2017-08-29T06:35:10.727Z,12.00
2017-08-29T06:37:38.176Z,11.97
2017-08-29T06:40:05.624Z,10.63
2017-08-29T06:42:33.076Z,13.17
2017-08-29T06:45:00.527Z,12.00
2017-08-29T06:47:27.979Z,11.07
2017-08-29T06:49:55.419Z,11.60
2017-08-29T06:52:22.875Z,11.83
2017-08-29T06:54:50.315Z,11.00
2017-08-29T06:57:17.763Z,11.07
2017-08-29T06:59:45.211Z,10.40
2017-08-29T07:02:12.681Z,10.13
2017-08-29T07:04:40.125Z,10.33
2017-08-29T07:07:07.563Z,11.00
2017-08-29T07:09:35.180Z,9.40
2017-08-29T07:12:03.043Z,9.20
2017-08-29T07:14:31.015Z,10.50
2017-08-29T07:16:59.087Z,9.50
2017-08-29T07:19:26.750Z,9.80
2017-08-29T07:21:54.925Z,10.13
2017-08-29T07:24:23.213Z,9.20
2017-08-29T07:38:35.392Z,8.70
2017-08-29T07:41:17.495Z,8.60
2017-08-29T07:43:44.914Z,8.70
2017-08-29T07:46:12.351Z,9.23
2017-08-29T07:48:39.795Z,9.03
2017-08-29T07:51:07.238Z,8.37
2017-08-29T07:53:34.699Z,8.50
2017-08-29T07:56:02.136Z,8.77
2017-08-29T07:58:29.582Z,10.70
2017-08-29T08:00:57.019Z,8.70
2017-08-29T08:03:24.447Z,7.60
2017-08-29T08:05:51.892Z,7.83
2017-08-29T08:08:19.326Z,8.30
2017-08-29T08:10:46.771Z,8.80
2017-08-29T08:13:14.205Z,9.50
2017-08-29T08:15:41.643Z,8.97
2017-08-29T08:18:09.087Z,8.70
2017-08-29T08:20:36.532Z,8.30
2017-08-29T08:23:03.959Z,9.07
2017-08-29T08:25:31.399Z,10.00
2017-08-29T08:27:58.830Z,9.00
2017-08-29T08:30:26.276Z,9.20
2017-08-29T08:32:53.709Z,8.80
2017-08-29T08:35:21.155Z,9.47
2017-08-29T08:37:48.593Z,9.83
2017-08-29T08:40:16.035Z,10.00
2017-08-29T08:45:17.487Z,8.97
2017-08-29T08:47:44.921Z,9.67
2017-08-29T08:50:12.362Z,9.10
2017-08-29T08:52:39.857Z,9.43
2017-08-29T08:55:07.291Z,10.17
2017-08-29T08:57:34.727Z,11.50
2017-08-29T09:00:02.166Z,10.30
2017-08-29T09:02:29.615Z,11.20
2017-08-29T09:04:57.067Z,9.73
2017-08-29T09:07:24.515Z,10.13
2017-08-29T09:09:51.964Z,10.80
2017-08-29T09:12:19.406Z,9.83
2017-08-29T09:14:46.848Z,9.27
2017-08-29T09:17:14.296Z,9.83
2017-08-29T09:19:41.730Z,9.60
2017-08-29T09:22:09.173Z,8.70
2017-08-29T09:24:36.612Z,8.90
2017-08-29T09:27:04.055Z,9.40
2017-08-29T09:29:31.495Z,8.90
2017-08-29T09:31:58.939Z,9.30
2017-08-29T09:34:26.371Z,8.60
2017-08-29T09:36:53.813Z,9.33
2017-08-29T09:39:21.263Z,8.23
2017-08-29T09:41:48.720Z,8.93
2017-08-29T09:44:16.164Z,8.93
2017-08-29T09:46:43.603Z,7.80
2017-08-29T09:49:11.039Z,8.50
2017-08-29T09:51:38.488Z,8.35
2017-08-29T09:54:05.931Z,9.63
2017-08-29T09:56:33.356Z,8.30
2017-08-29T09:59:00.799Z,7.33
2017-08-29T10:01:28.236Z,7.97
2017-08-29T10:03:55.676Z,7.70
2017-08-29T10:06:23.112Z,7.67
2017-08-29T10:08:50.551Z,7.10
2017-08-29T10:11:18.000Z,8.07
2017-08-29T10:13:45.738Z,8.00
2017-08-29T10:16:13.169Z,7.90
2017-08-29T10:18:40.607Z,7.90
2017-08-29T10:21:08.031Z,6.90
2017-08-29T10:23:35.475Z,8.10
2017-08-29T10:26:02.908Z,7.80
2017-08-29T10:28:30.350Z,8.37
2017-08-29T10:30:57.842Z,8.20
2017-08-29T10:33:25.358Z,8.00
2017-08-29T10:35:52.860Z,8.67
2017-08-29T10:38:20.357Z,7.40
2017-08-29T10:40:47.987Z,7.60
2017-08-29T10:43:15.541Z,7.37
2017-08-29T10:45:42.963Z,7.10
2017-08-29T10:48:10.403Z,8.27
2017-08-29T10:50:37.844Z,7.50
2017-08-29T10:53:05.268Z,8.90
2017-08-29T10:55:32.702Z,7.53
2017-08-29T10:58:00.174Z,8.40
2017-08-29T11:00:27.602Z,7.70
2017-08-29T11:02:55.036Z,7.80
2017-08-29T11:05:22.487Z,7.90
2017-08-29T11:07:49.911Z,5.77
2017-08-29T11:10:17.350Z,7.30
2017-08-29T11:12:44.788Z,8.00
2017-08-29T11:15:12.216Z,9.07
2017-08-29T11:17:39.790Z,8.33
2017-08-29T11:20:07.232Z,8.60
2017-08-29T11:22:34.668Z,8.73
2017-08-29T11:25:02.111Z,8.20
2017-08-29T11:27:29.549Z,8.33
2017-08-29T11:29:56.980Z,6.60
2017-08-29T11:32:24.414Z,6.73
2017-08-29T11:34:51.850Z,7.10
2017-08-29T11:37:19.292Z,6.90
2017-08-29T11:39:46.739Z,6.30
2017-08-29T11:42:14.567Z,7.57
2017-08-29T11:44:42.907Z,7.70
2017-08-29T11:47:10.367Z,7.53
2017-08-29T11:49:37.895Z,7.40
2017-08-29T11:52:05.364Z,7.20
2017-08-29T11:54:32.835Z,7.30
2017-08-29T11:57:00.329Z,7.27
2017-08-29T11:59:27.756Z,7.40
2017-08-29T12:01:55.205Z,8.10
2017-08-29T12:04:22.644Z,7.40
2017-08-29T12:06:50.105Z,7.10
2017-08-29T12:09:17.553Z,9.00
2017-08-29T12:11:45.001Z,8.90
2017-08-29T12:14:12.489Z,8.70
2017-08-29T12:16:39.959Z,8.00
2017-08-29T12:19:07.399Z,8.87
2017-08-29T12:21:34.844Z,8.07
2017-08-29T12:24:02.302Z,8.97
2017-08-29T12:26:29.754Z,9.73
2017-08-29T12:28:57.195Z,9.10
2017-08-29T12:31:24.647Z,8.83
2017-08-29T12:33:52.107Z,8.90
2017-08-29T12:36:19.547Z,9.20
2017-08-29T12:38:46.984Z,9.40
2017-08-29T12:41:14.458Z,9.23
2017-08-29T12:43:41.941Z,8.53
2017-08-29T12:46:09.390Z,9.30
2017-08-29T12:48:36.831Z,8.83
2017-08-29T12:51:04.268Z,7.67
2017-08-29T12:53:31.720Z,9.50
2017-08-29T12:58:33.114Z,9.67
2017-08-29T13:01:00.599Z,9.13
2017-08-29T13:03:28.041Z,8.70
2017-08-29T13:05:55.498Z,9.63
2017-08-29T13:08:22.944Z,8.40
2017-08-29T13:10:50.387Z,9.40
2017-08-29T13:13:17.827Z,8.90
2017-08-29T13:15:45.260Z,9.70
2017-08-29T13:18:12.728Z,8.43
2017-08-29T13:20:40.171Z,8.97
2017-08-29T13:23:07.615Z,8.53
2017-08-29T13:25:35.076Z,8.87
2017-08-29T13:28:02.583Z,9.30
2017-08-29T13:30:30.008Z,8.38
2017-08-29T13:32:57.443Z,8.43
2017-08-29T13:35:24.875Z,8.97
2017-08-29T13:37:52.315Z,9.10
2017-08-29T13:40:19.752Z,8.63
2017-08-29T13:42:47.187Z,8.40
2017-08-29T13:45:14.619Z,8.00
2017-08-29T13:47:42.055Z,8.87
2017-08-29T13:50:09.498Z,7.90
2017-08-29T13:52:36.931Z,7.77
2017-08-29T13:55:04.405Z,7.97
2017-08-29T13:57:31.840Z,8.63
2017-08-29T13:59:59.279Z,6.43
2017-08-29T14:02:26.717Z,9.13
2017-08-29T14:04:54.154Z,8.33
2017-08-29T14:07:21.594Z,8.60
2017-08-29T14:09:49.046Z,7.97
2017-08-29T14:12:16.467Z,7.30
2017-08-29T14:14:43.898Z,8.00
2017-08-29T14:17:11.339Z,7.50
2017-08-29T14:19:38.773Z,7.77
2017-08-29T14:22:06.219Z,7.03
2017-08-29T14:24:33.656Z,8.27
2017-08-29T14:27:01.087Z,7.37
2017-08-29T14:29:28.529Z,7.30
2017-08-29T14:31:55.967Z,7.47
2017-08-29T14:34:23.405Z,7.30
2017-08-29T14:36:50.844Z,7.60
2017-08-29T14:39:18.280Z,6.97
2017-08-29T14:41:45.710Z,7.63
2017-08-29T14:44:13.143Z,8.00
2017-08-29T14:46:52.390Z,9.40
2017-08-29T14:49:19.822Z,7.73
2017-08-29T14:51:47.264Z,8.30
2017-08-29T14:54:14.727Z,7.70
2017-08-29T14:56:42.162Z,8.50
2017-08-29T14:59:09.601Z,8.37
2017-08-29T15:01:37.044Z,8.40
2017-08-29T15:04:04.479Z,8.13
2017-08-29T15:06:31.916Z,8.13
2017-08-29T15:08:59.355Z,8.90
2017-08-29T15:11:26.791Z,7.60
2017-08-29T15:13:54.230Z,8.33
2017-08-29T15:16:21.669Z,8.43
2017-08-29T15:18:49.107Z,8.27
2017-08-29T15:21:16.551Z,9.20
2017-08-29T15:23:43.987Z,9.43
2017-08-29T15:26:11.427Z,9.47
2017-08-29T15:28:38.854Z,8.60
2017-08-29T15:31:06.296Z,8.90
2017-08-29T15:33:33.733Z,8.47
2017-08-29T15:36:01.168Z,8.73
2017-08-29T15:38:28.602Z,8.97
2017-08-29T15:40:56.057Z,9.93
2017-08-29T15:43:23.494Z,9.30
2017-08-29T15:45:50.934Z,9.50
2017-08-29T15:48:18.375Z,9.90
2017-08-29T15:50:45.804Z,9.43
2017-08-29T15:53:13.242Z,9.13
2017-08-29T15:55:40.764Z,9.60
2017-08-29T15:58:08.198Z,10.00
2017-08-29T16:00:35.679Z,9.80
2017-08-29T16:03:03.112Z,9.43
2017-08-29T16:05:30.549Z,9.33
2017-08-29T16:07:58.055Z,8.70
2017-08-29T16:10:26.530Z,9.50
2017-08-29T16:12:54.066Z,9.63
2017-08-29T16:15:21.659Z,9.97
2017-08-29T16:17:49.122Z,8.73
2017-08-29T16:20:16.670Z,9.27
2017-08-29T16:22:44.211Z,8.93
2017-08-29T16:25:11.797Z,9.83
2017-08-29T16:27:39.419Z,9.57
2017-08-29T16:30:07.135Z,9.53
2017-08-29T16:32:35.805Z,8.97
2017-08-29T16:35:03.291Z,8.43
2017-08-29T16:37:30.856Z,9.20
2017-08-29T16:39:59.393Z,8.53
2017-08-29T16:42:27.194Z,10.20
2017-08-29T16:44:57.763Z,9.77
2017-08-29T16:47:25.388Z,9.20
2017-08-29T16:49:52.818Z,9.30
2017-08-29T16:52:20.255Z,9.70
2017-08-29T16:54:47.696Z,9.77
2017-08-29T16:57:15.141Z,11.10
2017-08-29T16:59:42.585Z,9.23
2017-08-29T17:02:10.018Z,8.07
2017-08-29T17:04:37.472Z,9.00
2017-08-29T17:07:04.898Z,9.40
2017-08-29T17:09:32.347Z,10.43
2017-08-29T17:11:59.789Z,9.13
2017-08-29T17:14:27.233Z,9.47
2017-08-29T17:16:54.677Z,10.50
2017-08-29T17:19:22.121Z,10.70
2017-08-29T17:21:49.565Z,9.53
2017-08-29T17:24:17.013Z,10.13
2017-08-29T17:26:44.456Z,9.47
2017-08-29T17:29:11.897Z,9.60
2017-08-29T17:31:39.335Z,9.33
2017-08-29T17:34:06.789Z,10.03
2017-08-29T17:36:34.231Z,10.07
2017-08-29T17:39:01.696Z,10.13
2017-08-29T17:41:29.141Z,11.80
2017-08-29T17:43:56.584Z,10.20
2017-08-29T17:46:24.036Z,10.00
2017-08-29T17:48:52.479Z,9.77
2017-08-29T17:51:19.923Z,9.50
2017-08-29T17:53:47.360Z,9.00
2017-08-29T17:56:14.805Z,9.73
2017-08-29T17:58:42.245Z,10.90
2017-08-29T18:01:09.699Z,9.23
2017-08-29T18:03:37.141Z,9.90
2017-08-29T18:06:04.588Z,13.10
2017-08-29T18:08:32.033Z,10.43
2017-08-29T18:10:59.479Z,9.80
2017-08-29T18:13:26.928Z,10.23
2017-08-29T18:15:54.375Z,10.23
2017-08-29T18:18:21.815Z,10.03
2017-08-29T18:20:49.263Z,10.73
2017-08-29T18:23:16.712Z,10.27
2017-08-29T18:25:44.147Z,11.63
2017-08-29T18:28:11.591Z,11.80
2017-08-29T18:30:39.147Z,10.63
2017-08-29T18:33:06.572Z,10.60
2017-08-29T18:35:34.040Z,10.67
2017-08-29T18:38:01.484Z,12.10
2017-08-29T18:40:28.928Z,10.23
2017-08-29T18:42:56.370Z,11.60
2017-08-29T18:45:23.812Z,11.67
2017-08-29T18:47:51.260Z,10.70
2017-08-29T18:50:18.704Z,11.33
2017-08-29T18:52:46.149Z,11.60
2017-08-29T18:55:13.586Z,11.90
2017-08-29T18:57:41.041Z,11.87
2017-08-29T19:00:08.485Z,12.00
2017-08-29T19:02:35.933Z,11.43
2017-08-29T19:05:03.368Z,13.23
2017-08-29T19:07:30.821Z,12.03
2017-08-29T19:09:58.264Z,13.07
2017-08-29T19:12:25.714Z,12.10
2017-08-29T19:14:53.155Z,11.77
2017-08-29T19:17:20.882Z,11.60
2017-08-29T19:19:48.329Z,12.90
2017-08-29T19:22:15.778Z,12.50
2017-08-29T19:24:43.217Z,12.60
2017-08-29T19:27:10.671Z,12.53
2017-08-29T19:29:38.112Z,13.43
2017-08-29T19:32:05.558Z,12.47
2017-08-29T19:34:32.987Z,13.60
2017-08-29T19:37:00.453Z,12.50
2017-08-29T19:39:27.893Z,12.20
2017-08-29T19:41:55.336Z,11.20
2017-08-29T19:44:22.780Z,12.10
2017-08-29T19:46:50.226Z,12.47
2017-08-29T19:49:17.671Z,12.27
2017-08-29T19:51:45.277Z,14.00
2017-08-29T19:54:12.779Z,12.90
2017-08-29T19:56:40.243Z,13.60
2017-08-29T19:59:07.843Z,12.40
2017-08-29T20:01:35.305Z,12.57
2017-08-29T20:04:02.866Z,12.47
2017-08-29T20:06:30.336Z,13.10
2017-08-29T20:08:57.824Z,13.60
2017-08-29T20:11:25.295Z,13.23
2017-08-29T20:13:52.845Z,12.50
2017-08-29T20:16:20.361Z,12.57
2017-08-29T20:18:47.792Z,12.40
2017-08-29T20:21:15.236Z,13.40
2017-08-29T20:23:42.684Z,13.00
2017-08-29T20:26:10.122Z,13.17
2017-08-29T20:28:37.585Z,12.50
2017-08-29T20:31:05.012Z,12.23
2017-08-29T20:33:32.463Z,12.37
2017-08-29T20:35:59.908Z,12.97
2017-08-29T20:38:33.441Z,13.20
2017-08-29T20:41:00.878Z,12.57
2017-08-29T20:43:28.319Z,12.10
2017-08-29T20:45:55.762Z,12.10
2017-08-29T20:48:23.209Z,12.53
2017-08-29T20:50:50.661Z,12.37
2017-08-29T20:55:52.095Z,12.30
2017-08-29T20:58:19.535Z,13.27
2017-08-29T21:00:46.984Z,12.17
2017-08-29T21:03:14.425Z,12.80
2017-08-29T21:05:41.877Z,13.50
2017-08-29T21:08:09.312Z,14.00
2017-08-29T21:10:36.758Z,13.73
2017-08-29T21:13:04.208Z,13.50
2017-08-29T21:15:31.647Z,13.67
2017-08-29T21:17:59.084Z,14.20
2017-08-29T21:20:28.355Z,14.33
2017-08-29T21:22:55.792Z,15.70
2017-08-29T21:25:23.256Z,14.10
2017-08-29T21:27:50.717Z,14.13
2017-08-29T21:30:18.155Z,14.33
2017-08-29T21:32:45.595Z,15.57
2017-08-29T21:35:13.041Z,15.10
2017-08-29T21:37:40.485Z,15.20
2017-08-29T21:40:07.936Z,15.77
2017-08-29T21:42:35.385Z,16.30
2017-08-29T21:45:02.831Z,16.40
2017-08-29T21:47:30.276Z,17.07
2017-08-29T21:52:31.699Z,17.23
2017-08-29T21:54:59.140Z,17.10
2017-08-29T21:57:26.588Z,18.80
2017-08-29T21:59:54.032Z,18.13
2017-08-29T22:02:21.479Z,17.67
2017-08-29T22:04:48.917Z,19.10
2017-08-29T22:07:16.368Z,18.43
2017-08-29T22:09:43.815Z,19.40
2017-08-29T22:12:11.270Z,20.00
2017-08-29T22:14:38.704Z,18.40
2017-08-29T22:17:06.152Z,19.23
2017-08-29T22:19:33.598Z,17.47
2017-08-29T22:22:01.051Z,17.73
2017-08-29T22:24:28.491Z,16.23
2017-08-29T22:26:55.940Z,18.60
2017-08-29T22:29:23.384Z,17.83
2017-08-29T22:31:50.833Z,18.80
2017-08-29T22:34:18.276Z,18.80
2017-08-29T22:36:45.729Z,17.40
2017-08-29T22:39:13.179Z,18.75
2017-08-29T22:41:40.648Z,19.43
2017-08-29T22:44:08.092Z,20.30
2017-08-29T22:46:35.526Z,21.00
2017-08-29T22:49:02.963Z,17.70
2017-08-29T22:51:30.405Z,20.37
2017-08-29T22:53:57.848Z,19.23
2017-08-29T22:56:25.299Z,19.97
2017-08-29T22:58:52.744Z,18.40
2017-08-29T23:01:20.194Z,18.12
2017-08-29T23:03:47.650Z,18.10
2017-08-29T23:06:15.092Z,19.43
2017-08-29T23:08:42.549Z,20.00
2017-08-29T23:11:09.997Z,18.17
2017-08-29T23:13:37.439Z,19.10
2017-08-29T23:16:04.888Z,19.63
2017-08-29T23:18:32.344Z,19.00
2017-08-29T23:20:59.784Z,18.05
2017-08-29T23:23:27.240Z,19.30
2017-08-29T23:25:54.691Z,19.58
2017-08-29T23:28:22.140Z,19.00
2017-08-29T23:30:49.575Z,19.05
2017-08-29T23:33:17.028Z,18.57
2017-08-29T23:35:44.467Z,18.60
2017-08-29T23:38:11.929Z,18.83
2017-08-29T23:40:39.368Z,20.73
2017-08-29T23:43:06.815Z,19.02
2017-08-29T23:45:34.268Z,19.47
2017-08-29T23:48:01.721Z,20.10
2017-08-29T23:50:29.167Z,18.20
2017-08-29T23:52:56.611Z,18.00
2017-08-29T23:55:24.063Z,19.02
2017-08-29T23:57:51.506Z,18.33
